Terminal Aerodrome Forecast
Issued by NWS Charleston, WV

Home | Current Version | Previous Version | Text Only | Print | Product List | Glossary On
Versions: 1 2 3 4 5 6 7 8 9 10 11 12 13 14 15 16 17 18 19 20 21 22 23 24 25 26
000
FTUS41 KRLX 231500 AAA
TAFPKB
TAF AMD
KPKB 231500Z 2315/2412 12006KT P6SM OVC080
      TEMPO 2315/2316 3SM -RA
     FM231600 15007G15KT P6SM SHRA OVC045
      TEMPO 2316/2318 3SM -RA
     FM231900 14009G22KT 5SM SHRA OVC035
     FM232200 16007G18KT 2SM SHRA SCT015 OVC035
     FM232300 19006KT P6SM SHRA OVC025
     FM240500 21008KT P6SM OVC015=

USA.gov is the U.S. government's official web portal to all federal, state and local government web resources and services.